Time;durP1;ratioP1;P1;durP2;ratioP2;P2;SDS_P1;SDS_P2;PMS_P1;PMS_P2;Temp;Humidity;BMP_temperature;BMP_pressure;BME280_temperature;BME280_humidity;BME280_pressure;Samples;Min_cycle;Max_cycle;Signal;HPM_P1;HPM_P2
2022/09/12 00:00:00;;;;;;;1.50;1.00;;;15.80;98.20;;;;;;4963763;28;20463;-88
2022/09/12 00:02:27;;;;;;;1.50;0.93;;;15.80;98.20;;;;;;4966605;28;20490;-88
2022/09/12 00:04:55;;;;;;;1.50;1.00;;;15.80;98.20;;;;;;4959677;28;20471;-87
2022/09/12 00:07:22;;;;;;;1.50;1.00;;;15.80;98.20;;;;;;4960820;28;20498;-87
2022/09/12 00:09:49;;;;;;;1.50;1.00;;;15.80;98.20;;;;;;4960820;28;20498;-88
2022/09/12 00:12:16;;;;;;;1.50;1.00;;;15.80;98.20;;;;;;4959107;28;20496;-88
2022/09/12 00:14:43;;;;;;;1.50;1.00;;;15.70;98.20;;;;;;4960790;28;20466;-88
2022/09/12 00:17:11;;;;;;;1.50;1.00;;;15.70;98.20;;;;;;4962693;28;20561;-87
2022/09/12 00:19:38;;;;;;;1.50;0.97;;;15.70;98.20;;;;;;4964501;28;20471;-89
2022/09/12 00:22:06;;;;;;;1.50;0.90;;;15.70;98.20;;;;;;4943902;28;20514;-89
2022/09/12 00:24:33;;;;;;;1.50;1.00;;;15.70;98.20;;;;;;4955720;28;20462;-88
2022/09/12 00:27:01;;;;;;;1.53;1.00;;;15.70;98.20;;;;;;4958691;28;20482;-87
2022/09/12 00:29:28;;;;;;;1.50;1.00;;;15.70;98.20;;;;;;4965606;28;20545;-88
2022/09/12 00:31:55;;;;;;;1.50;1.00;;;15.60;98.20;;;;;;4953864;28;20482;-88
2022/09/12 00:34:22;;;;;;;1.50;1.00;;;15.60;98.20;;;;;;4968341;28;21207;-86
2022/09/12 00:36:49;;;;;;;1.50;1.00;;;15.60;98.20;;;;;;4956574;28;20493;-88
2022/09/12 00:39:18;;;;;;;1.50;1.00;;;15.50;98.20;;;;;;4965905;28;20481;-87
2022/09/12 00:41:45;;;;;;;1.50;1.00;;;15.50;98.20;;;;;;4956277;28;21076;-88
2022/09/12 00:44:44;;;;;;;1.50;1.00;;;15.50;98.20;;;;;;4962922;28;20486;-87
2022/09/12 00:47:16;;;;;;;1.50;0.97;;;15.40;98.20;;;;;;4952714;28;20490;-86
2022/09/12 00:49:47;;;;;;;1.50;1.00;;;15.40;98.20;;;;;;4961311;28;20720;-88
2022/09/12 00:52:18;;;;;;;1.53;1.00;;;15.40;98.20;;;;;;4955400;28;20497;-88
2022/09/12 00:54:51;;;;;;;1.53;1.00;;;15.40;98.20;;;;;;4961394;28;20459;-87
2022/09/12 00:57:21;;;;;;;2.67;2.47;;;15.40;98.20;;;;;;4958818;28;20532;-88
2022/09/12 00:59:51;;;;;;;1.50;1.00;;;15.30;98.20;;;;;;4962638;28;21157;-88
2022/09/12 01:02:19;;;;;;;1.53;1.00;;;15.30;98.20;;;;;;4962275;28;20541;-88
2022/09/12 01:04:46;;;;;;;1.50;1.00;;;15.30;98.20;;;;;;4963568;28;20466;-89
2022/09/12 01:07:15;;;;;;;1.50;1.00;;;15.30;98.20;;;;;;4963098;28;20520;-88
2022/09/12 01:09:44;;;;;;;1.50;1.00;;;15.30;98.20;;;;;;4967538;28;20505;-88
2022/09/12 01:12:14;;;;;;;1.50;1.00;;;15.30;98.20;;;;;;4962870;28;20495;-88
2022/09/12 01:14:41;;;;;;;1.53;1.00;;;15.20;98.20;;;;;;4966828;28;20542;-86
2022/09/12 01:17:12;;;;;;;1.53;1.00;;;15.20;98.20;;;;;;4945745;28;20578;-89
2022/09/12 01:20:18;;;;;;;1.53;1.00;;;15.20;98.20;;;;;;4956462;28;20837;-88
2022/09/12 01:23:12;;;;;;;1.50;1.00;;;15.20;98.20;;;;;;4943322;28;20482;-88
2022/09/12 01:25:54;;;;;;;1.50;1.00;;;15.10;98.20;;;;;;4953511;29;20538;-88
2022/09/12 01:28:44;;;;;;;1.50;1.00;;;15.10;98.20;;;;;;4934467;29;20470;-88
2022/09/12 01:31:18;;;;;;;1.50;1.00;;;15.10;98.20;;;;;;4953298;28;20481;-89
2022/09/12 01:33:55;;;;;;;1.50;0.97;;;15.10;98.20;;;;;;4962437;28;20491;-87
2022/09/12 01:36:39;;;;;;;1.50;1.00;;;15.10;98.20;;;;;;4955054;28;20504;-87
2022/09/12 01:39:17;;;;;;;1.50;1.00;;;15.10;98.20;;;;;;4972867;28;20474;-87
2022/09/12 01:41:53;;;;;;;1.57;1.00;;;15.10;98.20;;;;;;4951636;28;20490;-88
2022/09/12 01:44:29;;;;;;;1.53;1.00;;;15.10;98.20;;;;;;4962278;28;20474;-89
2022/09/12 01:47:07;;;;;;;1.50;1.00;;;15.10;98.20;;;;;;4950401;28;20485;-88
2022/09/12 01:49:42;;;;;;;1.53;1.10;;;15.10;98.20;;;;;;4963621;28;20494;-87
2022/09/12 01:52:17;;;;;;;1.50;1.00;;;15.10;98.20;;;;;;4950394;28;20537;-88
2022/09/12 01:54:49;;;;;;;1.53;1.00;;;15.00;98.20;;;;;;4961234;28;20462;-90
2022/09/12 01:57:24;;;;;;;1.50;1.00;;;15.00;98.20;;;;;;4944205;28;20482;-90
2022/09/12 02:00:00;;;;;;;1.50;1.00;;;15.00;98.20;;;;;;4951562;29;20462;-90
2022/09/12 02:02:33;;;;;;;1.53;1.00;;;15.00;98.20;;;;;;4970406;28;20640;-90
2022/09/12 02:05:06;;;;;;;1.50;1.00;;;15.00;98.20;;;;;;4959521;29;20475;-90
2022/09/12 02:07:38;;;;;;;1.50;1.00;;;14.90;98.20;;;;;;4964828;28;20561;-89
2022/09/12 02:10:09;;;;;;;1.57;1.00;;;14.90;98.20;;;;;;4958879;28;20486;-89
2022/09/12 02:12:43;;;;;;;1.50;1.00;;;14.90;98.20;;;;;;4969087;28;20494;-88
2022/09/12 02:15:12;;;;;;;1.50;1.00;;;14.90;98.20;;;;;;4963538;28;20466;-89
2022/09/12 02:17:45;;;;;;;1.50;1.00;;;14.90;98.20;;;;;;4965402;28;20485;-90
2022/09/12 02:20:16;;;;;;;1.50;1.00;;;14.90;98.20;;;;;;4963750;28;20473;-89
2022/09/12 02:22:45;;;;;;;1.50;1.00;;;14.80;98.20;;;;;;4963325;28;20500;-89
2022/09/12 02:25:17;;;;;;;1.50;0.90;;;14.90;98.20;;;;;;4965451;28;20557;-89
2022/09/12 02:27:49;;;;;;;1.50;0.90;;;14.80;98.20;;;;;;4951374;28;20490;-89
2022/09/12 02:30:18;;;;;;;1.50;1.00;;;14.80;98.20;;;;;;4960697;29;20494;-88
2022/09/12 02:32:56;;;;;;;1.50;0.93;;;14.80;98.20;;;;;;4981355;28;21010;-90
2022/09/12 02:35:34;;;;;;;1.50;1.00;;;14.80;98.20;;;;;;4951894;29;20462;-90
2022/09/12 02:38:07;;;;;;;1.50;1.00;;;14.80;98.20;;;;;;4967590;28;20504;-90
2022/09/12 02:40:34;;;;;;;2.03;1.63;;;14.80;98.20;;;;;;4960994;29;21146;-89
2022/09/12 02:43:02;;;;;;;1.50;1.00;;;14.80;98.20;;;;;;4968696;28;21031;-89
2022/09/12 02:45:33;;;;;;;1.50;1.00;;;14.80;98.20;;;;;;4961307;28;20478;-89
2022/09/12 02:48:06;;;;;;;1.57;1.10;;;14.80;98.20;;;;;;4969539;28;20508;-90
2022/09/12 02:50:33;;;;;;;1.50;1.00;;;14.80;98.20;;;;;;4961446;29;20582;-89
2022/09/12 02:53:03;;;;;;;1.60;1.10;;;14.80;98.20;;;;;;4966519;28;20493;-90
2022/09/12 02:55:32;;;;;;;1.50;1.00;;;14.80;98.20;;;;;;4960583;29;20465;-91
2022/09/12 02:58:01;;;;;;;1.53;1.00;;;14.80;98.20;;;;;;4970392;28;20481;-89
2022/09/12 03:00:31;;;;;;;1.50;1.00;;;14.80;98.20;;;;;;4954046;29;20463;-90
2022/09/12 03:03:19;;;;;;;1.50;1.00;;;14.80;98.20;;;;;;4959122;28;20521;-90
2022/09/12 03:05:55;;;;;;;1.50;1.00;;;14.80;98.20;;;;;;4953784;28;20463;-92
2022/09/12 03:08:45;;;;;;;1.57;1.00;;;14.80;98.20;;;;;;4934761;29;20534;-90
2022/09/12 03:11:42;;;;;;;1.57;1.00;;;14.80;98.20;;;;;;4951036;28;20496;-89
2022/09/12 03:14:22;;;;;;;1.50;1.00;;;14.90;98.20;;;;;;4968039;28;20783;-91
2022/09/12 03:16:58;;;;;;;1.50;1.00;;;14.90;98.20;;;;;;4961533;28;20486;-88
2022/09/12 03:19:33;;;;;;;1.50;1.10;;;14.90;98.20;;;;;;4964985;28;20775;-89
2022/09/12 03:22:09;;;;;;;1.50;1.00;;;14.90;98.20;;;;;;4953865;28;20524;-90
2022/09/12 03:24:43;;;;;;;1.50;1.00;;;14.90;98.20;;;;;;4965268;28;20459;-90
2022/09/12 03:27:16;;;;;;;1.50;1.00;;;14.90;98.20;;;;;;4967961;28;20509;-88
2022/09/12 03:29:46;;;;;;;1.50;1.00;;;14.90;98.20;;;;;;4966194;29;20462;-88
2022/09/12 03:32:13;;;;;;;2.27;1.73;;;14.80;98.20;;;;;;4973634;28;20871;-92
2022/09/12 03:34:42;;;;;;;1.50;1.00;;;14.80;98.20;;;;;;4959639;28;20521;-91
2022/09/12 03:37:09;;;;;;;3.80;3.30;;;14.80;98.20;;;;;;4960693;28;20522;-88
2022/09/12 03:39:38;;;;;;;1.50;1.00;;;14.80;98.20;;;;;;4971593;28;20467;-88
2022/09/12 03:42:06;;;;;;;1.50;1.00;;;14.70;98.20;;;;;;4961806;28;20490;-89
2022/09/12 03:44:33;;;;;;;1.50;1.00;;;14.80;98.20;;;;;;4968992;28;20925;-91
2022/09/12 03:47:02;;;;;;;1.50;1.00;;;14.80;98.20;;;;;;4963277;28;20493;-87
2022/09/12 03:49:29;;;;;;;1.50;1.00;;;14.80;98.20;;;;;;4969372;28;20515;-93
2022/09/12 03:51:58;;;;;;;1.50;1.00;;;14.70;98.20;;;;;;4960298;28;20493;-91
2022/09/12 03:54:24;;;;;;;1.50;1.00;;;14.70;98.20;;;;;;4961669;28;20550;-90
2022/09/12 03:56:51;;;;;;;1.50;1.00;;;14.70;98.20;;;;;;4957237;28;20494;-90
2022/09/12 03:59:19;;;;;;;1.53;1.00;;;14.70;98.20;;;;;;4969118;28;21033;-90
2022/09/12 04:01:46;;;;;;;1.50;1.10;;;14.70;98.20;;;;;;4968320;28;20941;-90
2022/09/12 04:04:16;;;;;;;1.50;1.00;;;14.70;98.20;;;;;;4990545;28;20476;-89
2022/09/12 04:06:43;;;;;;;1.50;1.00;;;14.70;98.20;;;;;;4967577;28;20482;-91
2022/09/12 04:09:11;;;;;;;1.50;1.00;;;14.70;98.20;;;;;;4979355;28;20455;-90
2022/09/12 04:11:38;;;;;;;1.50;1.00;;;14.70;98.20;;;;;;4962996;28;20484;-90
2022/09/12 04:14:05;;;;;;;1.50;1.00;;;14.70;98.20;;;;;;4969444;28;20502;-90
2022/09/12 04:16:32;;;;;;;1.50;1.00;;;14.70;98.20;;;;;;4959846;28;20482;-92
2022/09/12 04:19:00;;;;;;;1.50;1.00;;;14.70;98.20;;;;;;4972126;28;20467;-90
2022/09/12 04:21:27;;;;;;;1.50;1.00;;;14.70;98.20;;;;;;4953988;28;20512;-89
2022/09/12 04:23:54;;;;;;;1.50;1.00;;;14.70;98.20;;;;;;4974746;28;20502;-89
2022/09/12 04:26:38;;;;;;;;;;;;;;;;;;;;;
2022/09/12 04:29:07;;;;;;;2.10;1.67;;;14.70;98.20;;;;;;4983316;28;20447;-89
2022/09/12 04:31:35;;;;;;;1.50;1.00;;;14.70;98.20;;;;;;4972082;28;20555;-90
2022/09/12 04:34:06;;;;;;;1.50;1.00;;;14.60;98.20;;;;;;4983520;28;20498;-89
2022/09/12 04:36:35;;;;;;;1.50;1.00;;;14.60;98.20;;;;;;4970512;28;20610;-89
2022/09/12 04:39:04;;;;;;;1.53;1.00;;;14.60;98.20;;;;;;4981866;28;20487;-91
2022/09/12 04:41:35;;;;;;;1.50;1.00;;;14.60;98.20;;;;;;4969176;28;20489;-90
2022/09/12 04:44:06;;;;;;;1.50;1.00;;;14.60;98.20;;;;;;4980166;28;20495;-90
2022/09/12 04:46:38;;;;;;;1.53;1.00;;;14.60;98.20;;;;;;4964890;28;20490;-89
2022/09/12 04:49:07;;;;;;;1.50;1.00;;;14.50;98.20;;;;;;4980470;28;20454;-90
2022/09/12 04:51:45;;;;;;;1.50;1.00;;;14.50;98.20;;;;;;4968769;28;20492;-90
2022/09/12 04:54:16;;;;;;;1.50;0.90;;;14.50;98.20;;;;;;4980532;28;20474;-89
2022/09/12 04:56:55;;;;;;;1.50;1.00;;;14.50;98.20;;;;;;4961264;28;20495;-88
2022/09/12 04:59:26;;;;;;;1.50;1.00;;;14.50;98.20;;;;;;4973838;29;20455;-90
2022/09/12 05:01:53;;;;;;;1.53;1.00;;;14.50;98.20;;;;;;4978512;28;20497;-89
2022/09/12 05:04:23;;;;;;;1.50;1.00;;;14.50;98.20;;;;;;4972194;28;20489;-89
2022/09/12 05:07:28;;;;;;;1.50;1.00;;;14.50;98.20;;;;;;4965078;28;20505;-91
2022/09/12 05:09:57;;;;;;;1.50;1.00;;;14.50;98.20;;;;;;4975464;28;20446;-89
2022/09/12 05:12:26;;;;;;;1.53;1.10;;;14.50;98.20;;;;;;4967499;23;20621;-77
2022/09/12 05:14:57;;;;;;;1.60;1.10;;;14.50;98.20;;;;;;4969504;28;20482;-77
2022/09/12 05:17:29;;;;;;;1.57;1.00;;;14.50;98.20;;;;;;4963976;28;20482;-79
2022/09/12 05:19:57;;;;;;;1.60;1.30;;;14.50;98.20;;;;;;4964914;28;20477;-78
2022/09/12 05:22:46;;;;;;;1.53;1.00;;;14.50;98.20;;;;;;4963442;28;20494;-80
2022/09/12 05:25:19;;;;;;;1.50;1.00;;;14.50;98.20;;;;;;4964806;29;20462;-79
2022/09/12 05:28:00;;;;;;;1.50;1.00;;;14.50;98.20;;;;;;4970360;28;20494;-78
2022/09/12 05:30:28;;;;;;;1.50;1.00;;;14.60;98.20;;;;;;4966360;29;20864;-78
2022/09/12 05:32:56;;;;;;;1.50;1.10;;;14.60;98.20;;;;;;4968969;28;21026;-79
2022/09/12 05:35:30;;;;;;;1.50;1.00;;;14.60;98.20;;;;;;4966361;28;20462;-78
2022/09/12 05:38:01;;;;;;;1.53;1.00;;;14.60;98.20;;;;;;4969051;28;20495;-78
2022/09/12 05:40:36;;;;;;;1.50;1.00;;;14.70;98.20;;;;;;4965312;29;20553;-78
2022/09/12 05:43:14;;;;;;;1.50;1.00;;;14.70;98.20;;;;;;4975802;28;20590;-79
2022/09/12 05:45:49;;;;;;;1.50;1.00;;;14.70;98.20;;;;;;4965261;29;20451;-79
2022/09/12 05:51:18;;;;;;;1.53;1.00;;;14.80;98.20;;;;;;4957494;28;21184;-79
2022/09/12 05:53:47;;;;;;;1.60;1.00;;;14.80;98.20;;;;;;4987596;23;20494;-79
2022/09/12 05:56:17;;;;;;;1.50;1.00;;;14.90;98.20;;;;;;4968826;28;20501;-79
2022/09/12 06:01:36;;;;;;;1.90;1.70;;;15.00;98.20;;;;;;4962567;28;20518;-80
2022/09/12 06:04:06;;;;;;;1.53;1.00;;;15.10;98.20;;;;;;4961858;28;20490;-79
2022/09/12 06:06:37;;;;;;;1.50;1.00;;;15.30;98.20;;;;;;4953888;28;20493;-79
2022/09/12 06:09:06;;;;;;;1.60;1.00;;;15.40;98.20;;;;;;4958885;28;20466;-78
2022/09/12 06:11:36;;;;;;;1.50;1.00;;;15.50;98.20;;;;;;4950012;28;20486;-78
2022/09/12 06:14:07;;;;;;;1.53;1.00;;;15.60;98.20;;;;;;4963002;28;20478;-79
2022/09/12 06:16:38;;;;;;;1.57;1.00;;;15.60;98.20;;;;;;4950658;28;20479;-78
2022/09/12 06:19:08;;;;;;;1.60;1.10;;;15.70;98.20;;;;;;4955499;28;20593;-79
2022/09/12 06:21:38;;;;;;;1.53;1.00;;;15.90;98.20;;;;;;4950738;28;20478;-79
2022/09/12 06:24:06;;;;;;;1.53;1.00;;;16.00;98.20;;;;;;4969092;28;20578;-78
2022/09/12 06:26:34;;;;;;;1.50;0.90;;;16.00;98.20;;;;;;4955652;28;20489;-79
2022/09/12 06:29:04;;;;;;;1.50;0.90;;;16.10;98.20;;;;;;4963701;28;20538;-78
2022/09/12 06:31:37;;;;;;;1.60;1.10;;;16.10;98.20;;;;;;4949178;28;20639;-78
2022/09/12 06:34:07;;;;;;;1.53;1.00;;;16.20;98.20;;;;;;4964159;28;20486;-78
2022/09/12 06:36:37;;;;;;;1.57;1.00;;;16.30;98.20;;;;;;4951138;28;21027;-81
2022/09/12 06:39:11;;;;;;;1.53;0.90;;;16.40;98.20;;;;;;4961708;28;20617;-80
2022/09/12 06:41:43;;;;;;;1.60;1.00;;;16.50;98.20;;;;;;4953476;28;20494;-79
2022/09/12 06:44:14;;;;;;;1.50;1.00;;;16.70;98.20;;;;;;4963829;28;20557;-78
2022/09/12 06:46:43;;;;;;;1.60;1.00;;;16.80;98.20;;;;;;4951051;28;20573;-79
2022/09/12 06:49:11;;;;;;;1.57;1.03;;;16.90;98.20;;;;;;4964516;28;20542;-78
2022/09/12 06:51:47;;;;;;;1.60;1.30;;;16.90;98.20;;;;;;4956119;28;20466;-78
2022/09/12 06:57:14;;;;;;;1.50;0.90;;;17.00;98.20;;;;;;4954545;28;20490;-77
2022/09/12 06:59:46;;;;;;;1.60;1.10;;;17.10;98.20;;;;;;4965894;28;20542;-79
2022/09/12 07:02:18;;;;;;;1.50;1.00;;;17.20;98.20;;;;;;4954992;28;20506;-77
2022/09/12 07:04:45;;;;;;;1.57;1.00;;;17.20;98.20;;;;;;4963210;28;20486;-78
2022/09/12 07:07:17;;;;;;;1.70;1.27;;;17.30;98.20;;;;;;4954461;28;20499;-77
2022/09/12 07:09:44;;;;;;;1.50;1.00;;;17.20;98.20;;;;;;4964748;28;20474;-77
2022/09/12 07:12:12;;;;;;;1.87;1.67;;;17.20;98.20;;;;;;4953931;28;20578;-77
2022/09/12 07:14:44;;;;;;;1.60;1.20;;;17.30;98.20;;;;;;4964343;28;20697;-77
2022/09/12 07:17:12;;;;;;;1.50;1.00;;;17.40;98.20;;;;;;4955340;28;20520;-77
2022/09/12 07:19:48;;;;;;;1.50;1.00;;;17.50;98.20;;;;;;4965315;28;20696;-77
2022/09/12 07:22:15;;;;;;;1.57;0.90;;;17.60;98.20;;;;;;4942051;28;20570;-77
2022/09/12 07:24:44;;;;;;;1.50;0.90;;;17.80;98.20;;;;;;4962103;28;20518;-77
2022/09/12 07:27:56;;;;;;;1.50;1.07;;;17.80;98.20;;;;;;4960325;28;20505;-76
2022/09/12 07:30:25;;;;;;;1.50;1.00;;;17.80;98.20;;;;;;4962227;28;20478;-77
2022/09/12 07:32:54;;;;;;;1.57;1.00;;;17.80;98.20;;;;;;4952974;28;20516;-76
2022/09/12 07:35:23;;;;;;;1.60;1.30;;;17.80;98.20;;;;;;4965588;29;20462;-76
2022/09/12 07:37:50;;;;;;;1.53;0.90;;;17.80;98.20;;;;;;4957572;28;21065;-78
2022/09/12 07:40:18;;;;;;;1.53;0.90;;;17.80;98.20;;;;;;4955640;29;20466;-78
2022/09/12 07:42:46;;;;;;;1.60;1.10;;;18.00;98.20;;;;;;4947005;28;20479;-77
2022/09/12 07:45:26;;;;;;;1.50;0.97;;;18.20;98.20;;;;;;4956827;29;20463;-77
2022/09/12 07:47:54;;;;;;;1.60;1.00;;;18.40;98.20;;;;;;4957581;28;20576;-77
2022/09/12 07:50:22;;;;;;;1.53;1.00;;;18.50;98.20;;;;;;4958426;28;20526;-78
2022/09/12 07:52:50;;;;;;;1.53;1.00;;;18.70;98.20;;;;;;4955340;28;20490;-77
2022/09/12 07:55:22;;;;;;;1.50;1.00;;;18.80;98.20;;;;;;4965392;28;20892;-78
2022/09/12 08:01:32;;;;;;;1.53;0.90;;;18.90;98.20;;;;;;4917386;29;20528;-76
2022/09/12 08:11:05;;;;;;;1.53;0.90;;;19.00;98.20;;;;;;4957564;29;20850;-79
2022/09/12 08:13:38;;;;;;;1.70;1.40;;;19.10;98.20;;;;;;4929689;29;20569;-79
2022/09/12 08:16:11;;;;;;;1.50;0.90;;;19.20;98.20;;;;;;4945247;28;20529;-78
2022/09/12 08:22:30;;;;;;;1.57;1.00;;;19.30;98.20;;;;;;4938466;28;20545;-77
2022/09/12 08:25:14;;;;;;;2.23;1.97;;;19.40;98.20;;;;;;4956418;28;20494;-78
2022/09/12 08:28:19;;;;;;;1.57;1.00;;;19.50;98.20;;;;;;4946038;28;20514;-81
2022/09/12 08:31:40;;;;;;;;;;;;;;;;;;;;;
2022/09/12 08:34:19;;;;;;;1.53;0.90;;;19.80;98.20;;;;;;4932405;28;20471;-83
2022/09/12 08:36:47;;;;;;;1.60;1.00;;;20.10;98.20;;;;;;4944333;28;20506;-78
2022/09/12 08:39:14;;;;;;;1.57;0.90;;;20.30;98.20;;;;;;4953659;28;20479;-79
2022/09/12 08:41:44;;;;;;;1.53;0.90;;;20.50;98.20;;;;;;4943736;28;20539;-80
2022/09/12 08:44:31;;;;;;;1.50;0.90;;;20.60;98.20;;;;;;4953019;28;20491;-80
2022/09/12 08:47:15;;;;;;;1.50;0.90;;;20.80;98.20;;;;;;4947256;28;20844;-77
2022/09/12 08:49:52;;;;;;;1.53;0.90;;;20.90;98.20;;;;;;4956038;28;20955;-81
2022/09/12 08:52:24;;;;;;;1.50;0.90;;;21.20;98.20;;;;;;4943149;28;20486;-76
2022/09/12 08:54:53;;;;;;;1.50;0.90;;;21.40;98.20;;;;;;4952709;28;20499;-79
2022/09/12 08:57:23;;;;;;;1.53;0.90;;;21.60;98.20;;;;;;4948856;28;21086;-78
2022/09/12 08:59:53;;;;;;;1.53;0.90;;;21.70;98.20;;;;;;4956367;29;20828;-78
2022/09/12 09:02:53;;;;;;;1.57;0.90;;;21.90;97.40;;;;;;4946592;28;20526;-80
2022/09/12 09:05:28;;;;;;;1.53;0.90;;;22.10;97.00;;;;;;4961510;28;20522;-78
2022/09/12 09:08:28;;;;;;;1.90;1.57;;;22.40;96.40;;;;;;4946242;28;20626;-79
2022/09/12 09:11:03;;;;;;;1.60;0.90;;;22.60;95.30;;;;;;4944628;28;20471;-78
2022/09/12 09:16:38;;;;;;;1.50;0.90;;;23.00;95.20;;;;;;4944438;28;20490;-78
2022/09/12 09:19:11;;;;;;;1.50;0.87;;;23.10;93.90;;;;;;4954405;28;20943;-80
2022/09/12 09:21:44;;;;;;;1.53;0.90;;;23.30;94.00;;;;;;4942550;28;20897;-79
2022/09/12 09:24:16;;;;;;;1.57;0.90;;;23.50;93.00;;;;;;4954046;28;20511;-80
2022/09/12 09:26:49;;;;;;;1.50;0.90;;;23.50;92.80;;;;;;4949735;28;20718;-79
2022/09/12 09:29:21;;;;;;;1.50;0.90;;;23.70;92.30;;;;;;4957376;28;20494;-81
2022/09/12 09:31:52;;;;;;;1.50;0.87;;;23.90;92.30;;;;;;4597505;28;10000309;-78
2022/09/12 09:34:21;;;;;;;1.50;0.80;;;24.20;92.30;;;;;;4956114;28;20509;-81
2022/09/12 09:36:51;;;;;;;1.50;0.80;;;24.40;92.00;;;;;;4951407;28;20497;-77
2022/09/12 09:39:34;;;;;;;1.50;0.90;;;24.50;90.10;;;;;;4958410;28;20462;-78
2022/09/12 09:42:15;;;;;;;1.80;1.53;;;24.50;87.70;;;;;;4942815;28;21027;-77
2022/09/12 09:44:47;;;;;;;2.27;1.57;;;24.70;88.30;;;;;;4953738;28;20569;-77
2022/09/12 09:47:15;;;;;;;1.50;0.90;;;24.80;87.60;;;;;;4945354;28;20541;-74
2022/09/12 09:49:43;;;;;;;1.53;0.90;;;24.90;87.00;;;;;;4957523;28;20680;-74
2022/09/12 09:52:15;;;;;;;1.50;0.90;;;25.10;87.30;;;;;;4942773;28;20491;-76
2022/09/12 09:54:48;;;;;;;1.50;0.87;;;25.20;87.10;;;;;;4951978;28;20760;-76
2022/09/12 09:57:41;;;;;;;1.50;0.90;;;25.20;87.60;;;;;;4948650;28;20484;-76
2022/09/12 10:00:30;;;;;;;1.50;0.90;;;25.30;87.50;;;;;;4955911;29;20474;-74
2022/09/12 10:03:28;;;;;;;1.83;1.20;;;25.50;86.80;;;;;;4944271;28;20502;-73
2022/09/12 10:06:00;;;;;;;1.50;0.90;;;25.60;85.90;;;;;;4940043;28;20475;-74
2022/09/12 10:08:31;;;;;;;1.60;1.00;;;25.60;84.60;;;;;;4970752;28;20458;-74
2022/09/12 10:11:03;;;;;;;1.80;1.53;;;25.50;85.00;;;;;;4951731;28;20920;-74
2022/09/12 10:13:40;;;;;;;1.53;0.80;;;25.60;86.10;;;;;;4956354;28;20527;-75
2022/09/12 10:16:19;;;;;;;1.50;0.90;;;25.70;85.30;;;;;;4951510;28;20487;-73
2022/09/12 10:18:51;;;;;;;1.50;0.90;;;25.90;83.40;;;;;;4960353;28;20474;-74
2022/09/12 10:21:34;;;;;;;1.50;0.80;;;26.10;85.70;;;;;;4948941;28;20483;-78
2022/09/12 10:24:16;;;;;;;1.50;0.83;;;26.40;84.50;;;;;;4959905;28;20478;-75
2022/09/12 10:26:46;;;;;;;1.50;0.90;;;26.50;83.50;;;;;;4955428;28;20482;-75
2022/09/12 10:29:25;;;;;;;1.53;0.83;;;26.80;81.10;;;;;;4965939;28;20529;-75
2022/09/12 10:32:11;;;;;;;1.50;0.90;;;27.00;81.90;;;;;;4945434;28;20554;-76
2022/09/12 10:34:43;;;;;;;1.50;0.80;;;27.20;80.00;;;;;;4959694;29;20545;-76
2022/09/12 10:37:30;;;;;;;1.50;0.80;;;27.50;78.70;;;;;;4959058;28;20489;-75
2022/09/12 10:40:00;;;;;;;1.50;0.80;;;27.60;78.80;;;;;;4966719;28;20506;-76
2022/09/12 10:42:50;;;;;;;1.50;0.80;;;27.70;77.70;;;;;;4956826;28;20482;-75
2022/09/12 10:45:28;;;;;;;1.50;0.80;;;27.90;77.40;;;;;;4964753;29;20538;-77
2022/09/12 10:48:26;;;;;;;1.50;0.90;;;28.00;75.10;;;;;;4958311;28;20485;-76
2022/09/12 10:51:10;;;;;;;1.50;0.80;;;28.00;76.50;;;;;;4954981;28;20462;-75
2022/09/12 10:53:42;;;;;;;1.50;0.80;;;28.00;75.00;;;;;;4964062;28;20498;-76
2022/09/12 10:56:12;;;;;;;1.43;0.80;;;28.10;77.00;;;;;;4958062;28;20474;-76
2022/09/12 10:59:15;;;;;;;;;;;;;;;;;;;;;
2022/09/12 11:01:47;;;;;;;1.50;0.80;;;28.30;75.90;;;;;;4944806;28;20487;-75
2022/09/12 11:04:46;;;;;;;1.50;0.80;;;28.40;75.10;;;;;;4955118;28;20478;-76
2022/09/12 11:07:40;;;;;;;1.50;0.90;;;28.60;75.30;;;;;;4952733;28;20486;-75
2022/09/12 11:10:29;;;;;;;1.50;0.80;;;28.80;74.60;;;;;;4947519;29;20533;-75
2022/09/12 11:13:03;;;;;;;1.50;0.80;;;28.80;72.30;;;;;;4953735;28;20482;-74
2022/09/12 11:15:47;;;;;;;1.50;0.80;;;28.80;72.00;;;;;;4968751;28;20467;-75
2022/09/12 11:18:28;;;;;;;1.50;0.80;;;28.50;72.80;;;;;;4937442;29;20613;-74
2022/09/12 11:21:11;;;;;;;1.47;0.90;;;28.30;72.90;;;;;;4953224;28;20545;-75
2022/09/12 11:24:13;;;;;;;1.57;1.10;;;28.30;73.20;;;;;;4968437;28;20486;-74
2022/09/12 11:26:54;;;;;;;1.50;0.80;;;28.10;74.70;;;;;;4953833;28;20485;-75
2022/09/12 11:29:50;;;;;;;;;;;;;;;;;;;;;
2022/09/12 11:32:53;;;;;;;1.43;0.80;;;27.90;74.50;;;;;;4943126;28;20538;-76
2022/09/12 11:35:27;;;;;;;1.47;0.87;;;28.20;74.50;;;;;;4961130;28;20509;-75
2022/09/12 11:38:27;;;;;;;1.43;0.80;;;28.30;73.10;;;;;;4918891;28;20495;-76
2022/09/12 11:41:02;;;;;;;1.47;0.80;;;28.50;74.00;;;;;;4954016;28;20541;-75
2022/09/12 11:43:38;;;;;;;1.43;0.80;;;28.70;72.30;;;;;;4972579;28;21024;-75
2022/09/12 11:46:59;;;;;;;1.50;0.80;;;28.80;72.00;;;;;;4958306;28;20463;-74
2022/09/12 11:49:33;;;;;;;1.50;0.80;;;29.10;73.60;;;;;;4956305;28;20470;-75
2022/09/12 11:52:06;;;;;;;1.50;0.80;;;29.30;71.60;;;;;;4959394;28;20553;-76
2022/09/12 11:54:43;;;;;;;1.50;0.80;;;29.10;70.40;;;;;;4966827;28;20586;-75
2022/09/12 11:57:39;;;;;;;1.47;0.80;;;29.00;70.90;;;;;;4961203;28;20477;-76
2022/09/12 12:00:22;;;;;;;1.50;0.80;;;28.90;70.70;;;;;;4964381;28;20470;-74
2022/09/12 12:03:01;;;;;;;1.43;0.80;;;29.00;70.20;;;;;;4959492;28;20489;-75
2022/09/12 12:05:46;;;;;;;1.43;0.80;;;28.60;67.30;;;;;;4964945;28;20477;-75
2022/09/12 12:11:31;;;;;;;1.47;0.80;;;28.30;69.70;;;;;;4942741;28;20478;-73
2022/09/12 12:14:04;;;;;;;1.47;0.80;;;28.40;69.30;;;;;;4968010;28;20496;-74
2022/09/12 12:20:06;;;;;;;1.50;0.90;;;28.70;68.40;;;;;;4936725;28;20987;-75
2022/09/12 12:22:37;;;;;;;1.47;0.80;;;28.60;68.50;;;;;;4948813;28;20486;-74
2022/09/12 12:25:36;;;;;;;;;;;;;;;;;;;;;
2022/09/12 12:28:56;;;;;;;1.50;0.90;;;28.30;67.90;;;;;;4951537;28;20518;-76
2022/09/12 12:31:39;;;;;;;1.47;0.80;;;28.40;68.10;;;;;;4931688;28;20511;-75
2022/09/12 12:34:32;;;;;;;1.50;1.10;;;28.30;70.50;;;;;;4953606;29;20489;-75
2022/09/12 12:37:39;;;;;;;1.43;0.80;;;28.60;70.20;;;;;;4955068;28;20486;-76
2022/09/12 12:40:20;;;;;;;1.47;0.80;;;28.90;68.10;;;;;;4958781;28;20573;-75
2022/09/12 12:43:06;;;;;;;1.40;0.80;;;28.90;67.30;;;;;;4958574;28;20505;-75
2022/09/12 12:52:31;;;;;;;1.43;0.80;;;28.80;66.70;;;;;;4841340;29;20474;-75
2022/09/12 12:55:16;;;;;;;1.43;0.80;;;28.60;66.60;;;;;;4958531;28;20486;-74
2022/09/12 12:57:50;;;;;;;1.43;0.80;;;28.40;68.40;;;;;;4952827;28;20474;-75
2022/09/12 13:00:51;;;;;;;1.47;0.80;;;28.30;68.00;;;;;;4956681;29;20490;-75
2022/09/12 13:03:42;;;;;;;1.70;1.10;;;28.20;67.60;;;;;;4933211;29;20487;-74
2022/09/12 13:13:09;;;;;;;1.40;0.90;;;28.40;67.50;;;;;;4810955;29;21040;-74
2022/09/12 13:16:17;;;;;;;1.50;0.80;;;28.40;67.30;;;;;;4825594;29;20482;-75
2022/09/12 13:18:53;;;;;;;1.47;0.80;;;28.60;68.10;;;;;;4910409;29;20474;-74
2022/09/12 13:21:22;;;;;;;1.43;0.80;;;28.90;67.20;;;;;;4953157;28;20516;-75
2022/09/12 13:24:14;;;;;;;1.43;0.90;;;29.00;65.90;;;;;;4964806;28;20861;-75
2022/09/12 13:26:53;;;;;;;1.50;1.00;;;29.00;66.50;;;;;;4951587;28;20502;-75
2022/09/12 13:29:26;;;;;;;1.43;0.80;;;29.00;66.70;;;;;;4958917;28;20839;-74
2022/09/12 13:31:57;;;;;;;1.47;0.90;;;29.10;67.80;;;;;;4943508;28;20482;-74
2022/09/12 13:34:28;;;;;;;1.40;0.83;;;29.30;67.50;;;;;;4952028;28;20585;-75
2022/09/12 13:37:23;;;;;;;1.47;0.80;;;29.50;67.00;;;;;;4964552;28;20990;-74
2022/09/12 13:39:58;;;;;;;1.43;0.80;;;29.70;67.80;;;;;;4959439;28;20470;-74
2022/09/12 13:42:48;;;;;;;1.47;0.80;;;29.70;66.20;;;;;;4954851;28;20492;-73
2022/09/12 13:48:21;;;;;;;1.50;0.87;;;29.80;66.50;;;;;;4930050;29;20491;-74
2022/09/12 13:51:06;;;;;;;1.43;0.80;;;29.60;66.50;;;;;;4959592;28;20498;-74
2022/09/12 13:53:43;;;;;;;1.43;0.80;;;29.40;65.00;;;;;;4961596;28;20501;-74
2022/09/12 13:56:47;;;;;;;1.47;0.80;;;29.20;67.50;;;;;;4954332;28;20495;-74
2022/09/12 13:59:16;;;;;;;1.50;1.00;;;29.30;66.60;;;;;;4961256;28;20469;-75
2022/09/12 14:01:48;;;;;;;1.47;0.80;;;29.00;65.90;;;;;;4955319;28;20482;-75
2022/09/12 14:07:13;;;;;;;1.50;0.87;;;29.10;68.20;;;;;;4957645;28;20480;-74
2022/09/12 14:09:44;;;;;;;1.50;1.03;;;29.10;67.30;;;;;;4966469;28;20525;-75
2022/09/12 14:12:20;;;;;;;1.47;0.80;;;29.20;68.80;;;;;;4956218;28;20490;-75
2022/09/12 14:15:01;;;;;;;1.43;0.80;;;29.40;68.00;;;;;;4964635;28;20500;-74
2022/09/12 14:17:35;;;;;;;1.43;0.80;;;29.20;65.90;;;;;;4952964;28;20482;-75
2022/09/12 14:20:08;;;;;;;1.43;0.80;;;28.80;66.80;;;;;;4964232;28;20524;-76
2022/09/12 14:22:43;;;;;;;1.50;0.90;;;28.50;67.60;;;;;;4958215;28;20667;-76
2022/09/12 14:25:16;;;;;;;1.43;0.90;;;28.50;68.30;;;;;;4967139;28;21061;-74
2022/09/12 14:30:38;;;;;;;1.40;0.80;;;28.80;68.50;;;;;;4960153;29;20454;-75